createdAt,value
2022-08-22T00:01:07.774Z,19.30
2022-08-22T00:02:52.599Z,22.90
2022-08-22T00:02:59.525Z,22.10
2022-08-22T00:03:03.387Z,20.30
2022-08-22T00:04:03.683Z,19.40
2022-08-22T00:06:57.475Z,19.30
2022-08-22T00:09:48.845Z,19.20
2022-08-22T00:12:24.624Z,19.10
2022-08-22T00:15:31.582Z,19.10
2022-08-22T00:18:21.290Z,19.00
2022-08-22T00:21:16.178Z,18.90
2022-08-22T00:24:34.492Z,18.90
2022-08-22T00:27:08.343Z,18.80
2022-08-22T00:29:43.631Z,18.80
2022-08-22T00:32:20.636Z,18.80
2022-08-22T00:34:58.683Z,18.80
2022-08-22T00:37:35.708Z,18.80
2022-08-22T00:40:30.252Z,18.80
2022-08-22T00:43:30.715Z,18.80
2022-08-22T00:46:18.804Z,18.80
2022-08-22T00:49:04.221Z,18.70
2022-08-22T00:51:51.353Z,18.70
2022-08-22T00:54:42.823Z,18.60
2022-08-22T00:57:47.207Z,18.70
2022-08-22T01:00:23.458Z,18.60
2022-08-22T01:03:10.408Z,18.60
2022-08-22T01:06:11.917Z,18.60
2022-08-22T01:09:23.084Z,18.60
2022-08-22T01:12:02.751Z,18.60
2022-08-22T01:14:38.387Z,18.50
2022-08-22T01:17:51.292Z,18.60
2022-08-22T01:20:47.002Z,18.50
2022-08-22T01:23:40.564Z,18.40
2022-08-22T01:26:41.877Z,18.40
2022-08-22T01:29:42.568Z,18.30
2022-08-22T01:32:33.109Z,18.30
2022-08-22T01:35:15.807Z,18.20
2022-08-22T01:37:53.105Z,18.20
2022-08-22T01:40:53.382Z,18.20
2022-08-22T01:43:59.701Z,18.20
2022-08-22T01:46:27.843Z,18.20
2022-08-22T01:49:25.206Z,18.10
2022-08-22T01:52:15.055Z,18.10
2022-08-22T01:54:56.820Z,18.10
2022-08-22T01:57:23.967Z,18.10
2022-08-22T01:59:55.469Z,18.00
2022-08-22T02:02:43.532Z,18.00
2022-08-22T02:05:21.912Z,18.00
2022-08-22T02:08:13.793Z,17.90
2022-08-22T02:11:17.698Z,17.90
2022-08-22T02:13:58.634Z,17.90
2022-08-22T02:16:34.366Z,17.80
2022-08-22T02:19:14.319Z,17.80
2022-08-22T02:21:46.941Z,17.80
2022-08-22T02:24:27.557Z,17.70
2022-08-22T02:27:04.370Z,17.70
2022-08-22T02:30:04.513Z,17.70
2022-08-22T02:32:40.147Z,17.60
2022-08-22T02:35:12.836Z,17.60
2022-08-22T02:37:55.909Z,17.50
2022-08-22T02:40:28.592Z,17.50
2022-08-22T02:43:30.047Z,17.50
2022-08-22T02:46:24.123Z,17.60
2022-08-22T02:49:12.113Z,17.60
2022-08-22T02:51:50.804Z,17.50
2022-08-22T02:54:51.628Z,17.50
2022-08-22T02:57:29.976Z,17.50
2022-08-22T03:00:31.700Z,17.40
2022-08-22T03:03:14.321Z,17.30
2022-08-22T03:05:59.112Z,17.30
2022-08-22T03:08:38.115Z,17.20
2022-08-22T03:11:23.060Z,17.10
2022-08-22T03:14:08.547Z,17.10
2022-08-22T03:16:55.271Z,17.10
2022-08-22T03:19:30.277Z,17.10
2022-08-22T03:22:08.307Z,17.00
2022-08-22T03:24:44.068Z,16.90
2022-08-22T03:27:32.713Z,16.80
2022-08-22T03:30:21.786Z,16.80
2022-08-22T03:33:18.802Z,16.80
2022-08-22T03:35:45.527Z,16.80
2022-08-22T03:38:51.501Z,16.80
2022-08-22T03:41:39.266Z,16.80
2022-08-22T03:44:59.580Z,16.70
2022-08-22T03:47:41.213Z,16.60
2022-08-22T03:50:18.913Z,16.50
2022-08-22T03:53:15.368Z,16.50
2022-08-22T03:56:13.098Z,16.50
2022-08-22T03:58:47.014Z,16.40
2022-08-22T04:01:45.060Z,16.40
2022-08-22T04:04:14.963Z,16.40
2022-08-22T04:06:56.830Z,16.40
2022-08-22T04:09:23.827Z,16.30
2022-08-22T04:12:10.203Z,16.30
2022-08-22T04:15:10.127Z,16.30
2022-08-22T04:18:16.018Z,16.20
2022-08-22T04:21:09.559Z,16.20
2022-08-22T04:23:49.311Z,16.20
2022-08-22T04:26:36.438Z,16.20
2022-08-22T04:29:22.835Z,16.20
2022-08-22T04:32:26.873Z,16.20
2022-08-22T04:35:02.765Z,16.20
2022-08-22T04:37:39.306Z,16.20
2022-08-22T04:40:34.309Z,16.10
2022-08-22T04:43:12.346Z,16.10
2022-08-22T04:45:48.413Z,16.20
2022-08-22T04:48:24.813Z,16.20
2022-08-22T04:50:59.766Z,16.20
2022-08-22T04:53:46.019Z,16.30
2022-08-22T04:56:49.949Z,16.40
2022-08-22T04:59:18.620Z,16.50
2022-08-22T05:02:00.300Z,16.50
2022-08-22T05:04:34.683Z,16.60
2022-08-22T05:07:05.816Z,16.70
2022-08-22T05:09:37.383Z,16.70
2022-08-22T05:12:09.035Z,16.70
2022-08-22T05:14:54.483Z,16.80
2022-08-22T05:17:27.375Z,16.80
2022-08-22T05:19:57.874Z,16.90
2022-08-22T05:22:29.239Z,17.00
2022-08-22T05:25:07.128Z,17.10
2022-08-22T05:27:38.776Z,17.20
2022-08-22T05:30:11.631Z,17.30
2022-08-22T05:33:17.311Z,17.30
2022-08-22T05:35:53.413Z,17.50
2022-08-22T05:38:29.060Z,17.60
2022-08-22T05:41:03.335Z,17.70
2022-08-22T05:43:31.442Z,17.80
2022-08-22T05:45:59.388Z,17.90
2022-08-22T05:48:38.317Z,18.00
2022-08-22T05:51:21.410Z,18.10
2022-08-22T05:54:05.786Z,18.20
2022-08-22T05:56:37.787Z,18.30
2022-08-22T05:59:23.212Z,18.50
2022-08-22T06:01:50.041Z,18.60
2022-08-22T06:04:37.519Z,18.70
2022-08-22T06:07:16.835Z,18.90
2022-08-22T06:09:46.632Z,19.00
2022-08-22T06:12:22.315Z,19.10
2022-08-22T06:15:12.052Z,19.20
2022-08-22T06:17:49.607Z,19.30
2022-08-22T06:20:23.724Z,19.40
2022-08-22T06:22:55.122Z,19.50
2022-08-22T06:25:32.344Z,19.50
2022-08-22T06:28:01.537Z,19.70
2022-08-22T06:30:29.764Z,19.90
2022-08-22T06:33:04.585Z,20.10
2022-08-22T06:35:54.846Z,20.20
2022-08-22T06:38:25.624Z,20.30
2022-08-22T06:40:54.440Z,20.50
2022-08-22T06:43:23.769Z,20.60
2022-08-22T06:45:51.193Z,20.80
2022-08-22T06:48:21.899Z,20.80
2022-08-22T06:50:56.358Z,21.00
2022-08-22T06:53:48.456Z,21.00
2022-08-22T06:56:24.390Z,21.30
2022-08-22T06:58:57.248Z,21.50
2022-08-22T07:01:33.026Z,21.70
2022-08-22T07:04:08.680Z,21.80
2022-08-22T07:06:42.640Z,22.00
2022-08-22T07:09:22.079Z,22.10
2022-08-22T07:11:49.039Z,22.30
2022-08-22T07:14:24.306Z,22.30
2022-08-22T07:17:01.401Z,22.50
2022-08-22T07:19:32.907Z,22.50
2022-08-22T07:22:10.142Z,22.70
2022-08-22T07:24:37.936Z,22.90
2022-08-22T07:27:26.323Z,23.00
2022-08-22T07:30:15.520Z,23.00
2022-08-22T07:33:21.023Z,23.00
2022-08-22T07:35:58.671Z,23.10
2022-08-22T07:38:43.693Z,23.20
2022-08-22T07:41:30.033Z,23.20
2022-08-22T07:44:13.491Z,23.40
2022-08-22T07:46:52.824Z,23.50
2022-08-22T07:49:29.360Z,23.80
2022-08-22T07:52:00.328Z,23.90
2022-08-22T07:54:55.288Z,23.90
2022-08-22T07:57:32.121Z,23.90
2022-08-22T08:00:11.051Z,24.10
2022-08-22T08:02:50.976Z,24.30
2022-08-22T08:05:20.893Z,24.50
2022-08-22T08:07:48.682Z,24.70
2022-08-22T08:10:21.489Z,24.90
2022-08-22T08:13:01.952Z,25.10
2022-08-22T08:15:32.723Z,25.40
2022-08-22T08:18:05.354Z,25.50
2022-08-22T08:20:35.149Z,25.70
2022-08-22T08:23:03.586Z,26.00
2022-08-22T08:25:33.073Z,26.20
2022-08-22T08:28:19.192Z,26.50
2022-08-22T08:31:07.526Z,26.90
2022-08-22T08:33:39.624Z,27.80
2022-08-22T08:36:26.276Z,28.60
2022-08-22T08:39:02.021Z,29.60
2022-08-22T08:41:43.834Z,29.70
2022-08-22T08:44:37.269Z,29.70
2022-08-22T08:47:32.870Z,30.00
2022-08-22T08:50:06.771Z,30.50
2022-08-22T08:52:58.510Z,31.00
2022-08-22T08:55:44.119Z,31.10
2022-08-22T08:58:31.850Z,31.00
2022-08-22T09:01:27.566Z,31.20
2022-08-22T09:04:23.441Z,31.40
2022-08-22T09:07:25.663Z,32.00
2022-08-22T09:10:20.113Z,32.30
2022-08-22T09:13:12.143Z,32.80
2022-08-22T09:16:05.897Z,32.90
2022-08-22T09:18:44.601Z,33.30
2022-08-22T09:21:30.620Z,33.80
2022-08-22T09:24:23.181Z,34.20
2022-08-22T09:27:03.988Z,34.10
2022-08-22T09:30:05.038Z,33.60
2022-08-22T09:32:42.650Z,33.80
2022-08-22T09:35:23.919Z,33.90
2022-08-22T09:37:53.803Z,33.90
2022-08-22T09:40:29.121Z,34.50
2022-08-22T09:43:08.855Z,35.20
2022-08-22T09:45:50.219Z,35.70
2022-08-22T09:48:43.448Z,36.00
2022-08-22T09:51:45.683Z,36.60
2022-08-22T09:54:22.986Z,36.40
2022-08-22T09:57:37.461Z,36.30
2022-08-22T10:00:22.459Z,36.10
2022-08-22T10:03:04.570Z,35.80
2022-08-22T10:05:40.729Z,36.40
2022-08-22T10:08:38.526Z,36.70
2022-08-22T10:11:28.768Z,36.80
2022-08-22T10:14:25.725Z,36.90
2022-08-22T10:17:21.738Z,36.70
2022-08-22T10:19:55.024Z,37.60
2022-08-22T10:22:36.284Z,37.90
2022-08-22T10:25:41.745Z,38.10
2022-08-22T10:28:23.780Z,38.50
2022-08-22T10:31:20.698Z,38.90
2022-08-22T10:34:00.871Z,37.50
2022-08-22T10:36:48.719Z,36.00
2022-08-22T10:39:28.740Z,34.50
2022-08-22T10:42:09.723Z,34.30
2022-08-22T10:44:51.798Z,35.60
2022-08-22T10:47:27.283Z,36.60
2022-08-22T10:50:03.406Z,36.90
2022-08-22T10:52:46.816Z,37.20
2022-08-22T10:55:33.297Z,37.20
2022-08-22T10:58:10.718Z,38.20
2022-08-22T11:00:49.977Z,39.20
2022-08-22T11:03:46.943Z,40.30
2022-08-22T11:06:29.231Z,41.00
2022-08-22T11:09:16.093Z,39.60
2022-08-22T11:12:10.961Z,37.50
2022-08-22T11:14:43.532Z,36.30
2022-08-22T11:17:40.654Z,35.90
2022-08-22T11:20:48.772Z,37.10
2022-08-22T11:23:31.776Z,38.50
2022-08-22T11:26:14.336Z,38.80
2022-08-22T11:29:17.854Z,38.10
2022-08-22T11:32:30.724Z,38.80
2022-08-22T11:35:27.538Z,38.80
2022-08-22T11:38:05.262Z,39.10
2022-08-22T11:40:48.145Z,39.20
2022-08-22T11:43:48.884Z,39.20
2022-08-22T11:46:27.607Z,39.70
2022-08-22T11:48:55.776Z,40.20
2022-08-22T11:51:44.091Z,39.70
2022-08-22T11:54:19.764Z,39.40
2022-08-22T11:56:49.904Z,38.40
2022-08-22T11:59:30.623Z,37.10
2022-08-22T12:02:03.949Z,36.70
2022-08-22T12:04:49.992Z,38.10
2022-08-22T12:07:34.517Z,39.20
2022-08-22T12:10:17.956Z,40.10
2022-08-22T12:12:56.600Z,40.30
2022-08-22T12:15:29.388Z,41.20
2022-08-22T12:18:21.390Z,42.10
2022-08-22T12:21:14.590Z,42.70
2022-08-22T12:24:21.040Z,42.50
2022-08-22T12:27:13.645Z,42.40
2022-08-22T12:30:04.869Z,42.50
2022-08-22T12:32:58.403Z,42.90
2022-08-22T12:35:49.606Z,43.30
2022-08-22T12:38:28.412Z,42.20
2022-08-22T12:41:27.690Z,40.70
2022-08-22T12:44:38.629Z,38.60
2022-08-22T12:47:22.731Z,37.80
2022-08-22T12:50:14.635Z,37.90
2022-08-22T12:53:20.357Z,38.30
2022-08-22T12:56:00.967Z,39.30
2022-08-22T12:58:35.508Z,39.20
2022-08-22T13:01:06.906Z,38.20
2022-08-22T13:03:42.983Z,37.20
2022-08-22T13:06:34.957Z,36.70
2022-08-22T13:09:11.314Z,37.30
2022-08-22T13:11:41.816Z,38.40
2022-08-22T13:14:19.650Z,40.30
2022-08-22T13:16:54.899Z,40.90
2022-08-22T13:19:29.208Z,41.70
2022-08-22T13:22:12.368Z,42.50
2022-08-22T13:25:00.480Z,43.40
2022-08-22T13:27:36.028Z,43.60
2022-08-22T13:30:07.559Z,43.70
2022-08-22T13:32:44.414Z,44.20
2022-08-22T13:35:42.196Z,44.30
2022-08-22T13:38:53.153Z,44.60
2022-08-22T13:41:29.083Z,44.50
2022-08-22T13:44:05.217Z,43.30
2022-08-22T13:46:35.459Z,43.60
2022-08-22T13:49:07.171Z,43.40
2022-08-22T13:51:52.293Z,43.60
2022-08-22T13:54:43.843Z,42.60
2022-08-22T13:57:19.813Z,41.80
2022-08-22T14:00:06.101Z,42.40
2022-08-22T14:02:36.150Z,43.70
2022-08-22T14:05:11.024Z,44.80
2022-08-22T14:08:15.189Z,43.70
2022-08-22T14:10:57.991Z,42.70
2022-08-22T14:13:50.174Z,41.10
2022-08-22T14:16:27.161Z,39.70
2022-08-22T14:18:58.766Z,38.10
2022-08-22T14:21:47.132Z,37.20
2022-08-22T14:24:45.780Z,36.20
2022-08-22T14:27:56.194Z,35.50
2022-08-22T14:30:35.160Z,35.20
2022-08-22T14:33:22.050Z,35.00
2022-08-22T14:35:53.784Z,34.90
2022-08-22T14:38:33.118Z,34.80
2022-08-22T14:41:07.806Z,35.10
2022-08-22T14:43:40.534Z,36.60
2022-08-22T14:46:12.610Z,38.60
2022-08-22T14:49:07.601Z,40.80
2022-08-22T14:51:38.239Z,42.50
2022-08-22T14:54:21.261Z,43.50
2022-08-22T14:56:51.871Z,43.70
2022-08-22T14:59:42.493Z,43.00
2022-08-22T15:02:23.892Z,42.60
2022-08-22T15:04:53.705Z,41.70
2022-08-22T15:07:25.026Z,40.00
2022-08-22T15:10:11.946Z,38.40
2022-08-22T15:12:49.687Z,37.10
2022-08-22T15:15:30.791Z,35.50
2022-08-22T15:17:59.541Z,34.70
2022-08-22T15:20:38.293Z,34.10
2022-08-22T15:23:21.870Z,33.70
2022-08-22T15:26:06.931Z,33.40
2022-08-22T15:28:52.327Z,33.70
2022-08-22T15:31:20.314Z,35.40
2022-08-22T15:33:51.164Z,37.50
2022-08-22T15:36:24.284Z,38.70
2022-08-22T15:39:27.984Z,40.00
2022-08-22T15:41:57.887Z,40.80
2022-08-22T15:44:33.241Z,41.50
2022-08-22T15:47:06.251Z,41.60
2022-08-22T15:49:50.570Z,41.90
2022-08-22T15:52:33.713Z,41.70
2022-08-22T15:55:35.415Z,41.50
2022-08-22T15:58:13.120Z,41.10
2022-08-22T16:01:04.770Z,41.00
2022-08-22T16:04:07.924Z,40.80
2022-08-22T16:06:43.728Z,40.90
2022-08-22T16:09:33.495Z,40.60
2022-08-22T16:12:05.052Z,40.70
2022-08-22T16:14:34.796Z,41.30
2022-08-22T16:17:05.591Z,41.20
2022-08-22T16:19:35.291Z,40.70
2022-08-22T16:22:06.515Z,40.20
2022-08-22T16:24:54.593Z,40.20
2022-08-22T16:27:24.807Z,39.70
2022-08-22T16:30:03.009Z,39.40
2022-08-22T16:32:30.061Z,39.20
2022-08-22T16:34:56.848Z,39.50
2022-08-22T16:37:51.262Z,39.50
2022-08-22T16:40:23.573Z,39.10
2022-08-22T16:43:10.151Z,38.90
2022-08-22T16:45:39.168Z,38.50
2022-08-22T16:48:35.322Z,37.70
2022-08-22T16:51:18.634Z,36.60
2022-08-22T16:54:39.150Z,35.50
2022-08-22T16:57:17.377Z,34.50
2022-08-22T16:59:56.051Z,33.90
2022-08-22T17:02:37.340Z,33.50
2022-08-22T17:05:21.945Z,33.90
2022-08-22T17:08:21.501Z,34.20
2022-08-22T17:11:18.214Z,33.90
2022-08-22T17:13:58.511Z,33.60
2022-08-22T17:16:49.777Z,33.10
2022-08-22T17:19:49.150Z,32.50
2022-08-22T17:23:07.519Z,31.80
2022-08-22T17:25:47.568Z,31.10
2022-08-22T17:28:25.510Z,30.60
2022-08-22T17:31:16.871Z,30.30
2022-08-22T17:34:05.558Z,30.00
2022-08-22T17:37:01.696Z,29.70
2022-08-22T17:40:09.855Z,29.50
2022-08-22T17:42:38.125Z,29.30
2022-08-22T17:45:38.876Z,29.20
2022-08-22T17:48:38.796Z,29.00
2022-08-22T17:51:31.658Z,28.80
2022-08-22T17:54:12.569Z,28.60
2022-08-22T17:56:50.097Z,28.50
2022-08-22T17:59:59.373Z,28.30
2022-08-22T18:02:56.468Z,28.20
2022-08-22T18:05:32.514Z,28.00
2022-08-22T18:08:37.375Z,27.90
2022-08-22T18:11:03.653Z,27.80
2022-08-22T18:13:59.746Z,27.60
2022-08-22T18:16:42.412Z,27.50
2022-08-22T18:19:21.800Z,27.40
2022-08-22T18:21:54.585Z,27.30
2022-08-22T18:24:33.265Z,27.10
2022-08-22T18:27:34.662Z,27.00
2022-08-22T18:30:13.862Z,26.80
2022-08-22T18:32:54.179Z,26.60
2022-08-22T18:35:53.850Z,26.40
2022-08-22T18:38:38.689Z,26.20
2022-08-22T18:41:28.792Z,26.00
2022-08-22T18:43:59.194Z,25.80
2022-08-22T18:46:29.012Z,25.60
2022-08-22T18:49:14.478Z,25.40
2022-08-22T18:51:43.228Z,25.30
2022-08-22T18:54:36.001Z,25.20
2022-08-22T18:57:42.684Z,25.00
2022-08-22T19:00:50.621Z,24.90
2022-08-22T19:03:41.862Z,24.80
2022-08-22T19:06:35.887Z,24.60
2022-08-22T19:09:33.387Z,24.40
2022-08-22T19:12:27.548Z,24.20
2022-08-22T19:15:25.176Z,24.10
2022-08-22T19:18:17.552Z,23.90
2022-08-22T19:21:23.002Z,23.80
2022-08-22T19:23:51.430Z,23.80
2022-08-22T19:26:26.072Z,23.70
2022-08-22T19:29:10.623Z,23.70
2022-08-22T19:31:42.499Z,23.60
2022-08-22T19:34:30.381Z,23.50
2022-08-22T19:37:30.695Z,23.50
2022-08-22T19:40:08.555Z,23.40
2022-08-22T19:42:38.848Z,23.40
2022-08-22T19:45:08.188Z,23.30
2022-08-22T19:47:41.913Z,23.30
2022-08-22T19:50:31.026Z,23.30
2022-08-22T19:52:57.989Z,23.20
2022-08-22T19:55:52.842Z,23.10
2022-08-22T19:58:46.627Z,23.00
2022-08-22T20:01:31.733Z,22.90
2022-08-22T20:04:22.947Z,22.80
2022-08-22T20:07:00.905Z,22.80
2022-08-22T20:09:56.880Z,22.70
2022-08-22T20:12:29.675Z,22.60
2022-08-22T20:14:57.328Z,22.60
2022-08-22T20:17:24.212Z,22.50
2022-08-22T20:22:53.122Z,22.30
2022-08-22T20:25:42.047Z,22.30
2022-08-22T20:28:31.907Z,22.20
2022-08-22T20:31:01.604Z,22.10
2022-08-22T20:33:36.016Z,22.10
2022-08-22T20:36:06.742Z,22.00
2022-08-22T20:38:55.421Z,22.00
2022-08-22T20:41:56.176Z,22.00
2022-08-22T20:44:35.306Z,21.90
2022-08-22T20:47:11.055Z,21.90
2022-08-22T20:49:46.624Z,21.80
2022-08-22T20:52:39.190Z,21.70
2022-08-22T20:55:20.330Z,21.60
2022-08-22T20:57:57.153Z,21.60
2022-08-22T21:00:47.586Z,21.60
2022-08-22T21:03:32.483Z,21.60
2022-08-22T21:06:20.740Z,21.60
2022-08-22T21:09:08.863Z,21.60
2022-08-22T21:11:41.550Z,21.60
2022-08-22T21:14:24.590Z,21.70
2022-08-22T21:16:53.027Z,21.60
2022-08-22T21:19:27.995Z,21.60
2022-08-22T21:22:18.000Z,21.50
2022-08-22T21:24:45.629Z,21.60
2022-08-22T21:27:26.212Z,21.50
2022-08-22T21:29:53.119Z,21.50
2022-08-22T21:32:34.639Z,21.40
2022-08-22T21:35:03.808Z,21.40
2022-08-22T21:37:45.752Z,21.40
2022-08-22T21:40:36.195Z,21.40
2022-08-22T21:43:07.935Z,21.40
2022-08-22T21:45:41.608Z,21.40
2022-08-22T21:48:40.184Z,21.40
2022-08-22T21:51:42.840Z,21.40
2022-08-22T21:54:25.160Z,21.40
2022-08-22T21:56:54.775Z,21.40
2022-08-22T21:59:51.683Z,21.40
2022-08-22T22:02:36.539Z,21.50
2022-08-22T22:05:21.942Z,21.40
2022-08-22T22:07:48.850Z,21.40
2022-08-22T22:10:18.589Z,21.40
2022-08-22T22:12:47.748Z,21.40
2022-08-22T22:15:17.969Z,21.40
2022-08-22T22:17:45.393Z,21.40
2022-08-22T22:20:15.182Z,21.40
2022-08-22T22:22:45.874Z,21.50
2022-08-22T22:25:39.825Z,21.60
2022-08-22T22:28:11.035Z,21.50
2022-08-22T22:30:37.984Z,21.60
2022-08-22T22:33:05.083Z,21.70
2022-08-22T22:35:32.493Z,21.70
2022-08-22T22:37:59.474Z,21.70
2022-08-22T22:40:26.430Z,21.70
2022-08-22T22:42:53.248Z,21.70
2022-08-22T22:45:20.091Z,21.70
2022-08-22T22:47:46.997Z,21.70
2022-08-22T22:50:13.808Z,21.70
2022-08-22T22:52:40.898Z,21.70
2022-08-22T22:55:09.088Z,21.70
2022-08-22T22:57:42.390Z,21.60
2022-08-22T23:00:12.237Z,21.60
2022-08-22T23:02:40.208Z,21.60
2022-08-22T23:05:08.684Z,21.60
2022-08-22T23:07:36.416Z,21.50
2022-08-22T23:10:06.628Z,21.50
2022-08-22T23:12:36.227Z,21.50
2022-08-22T23:15:05.423Z,21.50
2022-08-22T23:17:32.657Z,21.50
2022-08-22T23:20:00.012Z,21.50
2022-08-22T23:22:27.108Z,21.40
2022-08-22T23:24:53.991Z,21.30
2022-08-22T23:27:20.747Z,21.20
2022-08-22T23:29:47.882Z,21.10
2022-08-22T23:32:15.240Z,21.00
2022-08-22T23:34:46.079Z,21.00
2022-08-22T23:37:22.740Z,20.90
2022-08-22T23:39:50.168Z,20.80
2022-08-22T23:42:18.280Z,20.60
2022-08-22T23:44:46.399Z,20.50
2022-08-22T23:47:14.244Z,20.40
2022-08-22T23:49:42.579Z,20.30
2022-08-22T23:52:12.039Z,20.30
2022-08-22T23:54:39.018Z,20.10
2022-08-22T23:57:12.186Z,20.10
2022-08-22T23:59:48.066Z,20.00
